createdAt,value
2023-01-23T00:02:01.552Z,1030.4
2023-01-23T00:07:12.187Z,1030.6
2023-01-23T00:12:52.675Z,1030.5
2023-01-23T00:18:37.547Z,1030.4
2023-01-23T00:24:08.342Z,1030.4
2023-01-23T00:29:52.383Z,1030.3
2023-01-23T00:35:09.706Z,1030.4
2023-01-23T00:40:50.136Z,1030.4
2023-01-23T00:46:26.077Z,1030.2
2023-01-23T00:51:49.992Z,1030.2
2023-01-23T00:57:21.821Z,1030.3
2023-01-23T01:02:59.615Z,1030.2
2023-01-23T01:08:34.045Z,1030.3
2023-01-23T01:14:21.305Z,1030.2
2023-01-23T01:19:48.978Z,1030.2
2023-01-23T01:25:33.397Z,1030.3
2023-01-23T01:30:51.845Z,1030.4
2023-01-23T01:36:18.904Z,1030.5
2023-01-23T01:42:14.636Z,1030.5
2023-01-23T01:47:35.320Z,1030.4
2023-01-23T01:53:09.914Z,1030.4
2023-01-23T01:58:57.191Z,1030.5
2023-01-23T02:04:21.275Z,1030.5
2023-01-23T02:09:57.223Z,1030.4
2023-01-23T02:15:32.758Z,1030.5
2023-01-23T02:21:02.168Z,1030.5
2023-01-23T02:26:46.040Z,1030.5
2023-01-23T02:32:15.286Z,1030.4
2023-01-23T02:37:44.105Z,1030.4
2023-01-23T02:43:15.215Z,1030.4
2023-01-23T02:48:50.722Z,1030.4
2023-01-23T02:54:22.552Z,1030.4
2023-01-23T02:59:55.223Z,1030.4
2023-01-23T03:05:36.127Z,1030.3
2023-01-23T03:11:15.145Z,1030.3
2023-01-23T03:16:48.903Z,1030.3
2023-01-23T03:22:25.842Z,1030.2
2023-01-23T03:27:57.923Z,1030.4
2023-01-23T03:33:06.218Z,1030.3
2023-01-23T03:39:04.276Z,1030.2
2023-01-23T03:44:33.561Z,1030
2023-01-23T03:50:13.380Z,1030.1
2023-01-23T03:55:46.677Z,1030
2023-01-23T04:01:09.967Z,1030.1
2023-01-23T04:06:47.908Z,1029.9
2023-01-23T04:12:10.544Z,1030.1
2023-01-23T04:17:40.129Z,1030
2023-01-23T04:23:36.546Z,1030
2023-01-23T04:28:44.150Z,1030.2
2023-01-23T04:34:42.465Z,1030.2
2023-01-23T04:40:05.309Z,1030.3
2023-01-23T04:45:38.970Z,1030.3
2023-01-23T04:51:25.369Z,1030.4
2023-01-23T04:56:48.441Z,1030.3
2023-01-23T05:02:19.043Z,1030.2
2023-01-23T05:07:48.822Z,1030.2
2023-01-23T05:13:23.036Z,1030.2
2023-01-23T05:18:57.713Z,1030.4
2023-01-23T05:24:29.706Z,1030.2
2023-01-23T05:30:07.217Z,1030.3
2023-01-23T05:35:34.811Z,1030.2
2023-01-23T05:41:10.577Z,1030.2
2023-01-23T05:46:42.231Z,1030.3
2023-01-23T06:09:13.653Z,1030.3
2023-01-23T06:14:44.996Z,1030.4
2023-01-23T06:20:22.041Z,1030.3
2023-01-23T06:25:59.468Z,1030.4
2023-01-23T06:31:39.425Z,1030.5
2023-01-23T06:37:04.573Z,1030.7
2023-01-23T06:42:39.042Z,1030.8
2023-01-23T06:48:05.271Z,1030.8
2023-01-23T06:53:30.434Z,1030.9
2023-01-23T06:59:14.827Z,1030.8
2023-01-23T07:04:59.271Z,1030.9
2023-01-23T07:10:28.493Z,1030.9
2023-01-23T07:21:33.344Z,1031
2023-01-23T07:27:01.281Z,1031
2023-01-23T07:32:40.731Z,1031.1
2023-01-23T07:37:56.087Z,1031.1
2023-01-23T07:43:40.845Z,1031.2
2023-01-23T07:49:09.065Z,1031.2
2023-01-23T07:54:44.595Z,1031.3
2023-01-23T08:00:31.031Z,1031.2
2023-01-23T08:05:52.205Z,1031.3
2023-01-23T08:11:20.282Z,1031.2
2023-01-23T08:16:54.111Z,1031.2
2023-01-23T08:22:54.596Z,1031.3
2023-01-23T08:28:07.455Z,1031.4
2023-01-23T08:34:00.883Z,1031.3
2023-01-23T08:39:24.960Z,1031.2
2023-01-23T08:45:07.041Z,1031.1
2023-01-23T08:50:24.932Z,1031.1
2023-01-23T08:55:57.310Z,1031
2023-01-23T09:01:33.306Z,1031.1
2023-01-23T09:07:01.994Z,1031.1
2023-01-23T09:12:36.759Z,1031.1
2023-01-23T09:18:19.841Z,1031.1
2023-01-23T09:23:49.669Z,1031.2
2023-01-23T09:29:40.994Z,1031.1
2023-01-23T09:34:58.792Z,1031.3
2023-01-23T09:40:47.050Z,1031.3
2023-01-23T09:46:05.690Z,1031
2023-01-23T09:51:51.710Z,1031.1
2023-01-23T09:57:06.197Z,1030.9
2023-01-23T10:03:05.980Z,1030.9
2023-01-23T10:08:20.782Z,1030.7
2023-01-23T10:14:17.330Z,1030.8
2023-01-23T10:19:33.155Z,1030.8
2023-01-23T10:25:21.425Z,1030.6
2023-01-23T10:30:48.072Z,1030.7
2023-01-23T10:36:08.530Z,1030.7
2023-01-23T10:42:05.134Z,1030.5
2023-01-23T10:47:15.844Z,1030.5
2023-01-23T10:52:52.629Z,1030.5
2023-01-23T10:58:22.947Z,1030.5
2023-01-23T11:04:08.381Z,1030.4
2023-01-23T11:09:43.840Z,1030.3
2023-01-23T11:15:29.591Z,1030.3
2023-01-23T11:21:01.239Z,1030.3
2023-01-23T11:26:25.310Z,1030.3
2023-01-23T11:32:09.686Z,1030.3
2023-01-23T11:37:27.741Z,1030.3
2023-01-23T11:43:00.989Z,1030
2023-01-23T11:48:40.577Z,1030
2023-01-23T11:54:25.141Z,1029.9
2023-01-23T11:59:52.783Z,1029.7
2023-01-23T12:05:15.593Z,1029.7
2023-01-23T12:10:47.112Z,1029.6
2023-01-23T12:16:31.191Z,1029.5
2023-01-23T12:21:49.414Z,1029.4
2023-01-23T12:27:44.375Z,1029.2
2023-01-23T12:33:21.086Z,1029.3
2023-01-23T12:38:41.253Z,1029.2
2023-01-23T12:44:25.764Z,1029.1
2023-01-23T12:49:55.266Z,1028.8
2023-01-23T12:55:11.096Z,1029
2023-01-23T13:01:07.168Z,1028.8
2023-01-23T13:06:34.118Z,1028.8
2023-01-23T13:12:06.358Z,1028.8
2023-01-23T13:17:49.748Z,1028.8
2023-01-23T13:23:07.651Z,1028.8
2023-01-23T13:28:46.937Z,1028.9
2023-01-23T13:34:15.753Z,1028.8
2023-01-23T13:40:07.838Z,1028.8
2023-01-23T13:45:20.652Z,1028.9
2023-01-23T13:51:09.033Z,1029
2023-01-23T13:56:48.154Z,1028.9
2023-01-23T14:01:58.951Z,1028.9
2023-01-23T14:07:42.565Z,1028.7
2023-01-23T14:13:31.954Z,1028.8
2023-01-23T14:18:46.566Z,1028.9
2023-01-23T14:24:15.971Z,1028.7
2023-01-23T14:30:01.434Z,1028.8
2023-01-23T14:35:40.337Z,1028.8
2023-01-23T14:41:20.706Z,1028.9
2023-01-23T14:46:38.310Z,1029
2023-01-23T14:52:16.788Z,1029.1
2023-01-23T14:57:55.984Z,1029.1
2023-01-23T15:03:23.996Z,1029
2023-01-23T15:09:17.461Z,1029.1
2023-01-23T15:14:40.141Z,1029
2023-01-23T15:20:20.015Z,1028.8
2023-01-23T15:26:04.394Z,1028.9
2023-01-23T15:31:06.471Z,1028.8
2023-01-23T15:36:42.810Z,1028.9
2023-01-23T15:42:16.878Z,1028.9
2023-01-23T15:48:07.438Z,1029
2023-01-23T15:53:42.778Z,1029
2023-01-23T15:59:18.968Z,1028.9
2023-01-23T16:04:39.281Z,1028.8
2023-01-23T16:10:21.660Z,1028.8
2023-01-23T16:15:43.496Z,1028.8
2023-01-23T16:21:32.694Z,1029
2023-01-23T16:26:45.300Z,1029
2023-01-23T16:32:35.738Z,1029.1
2023-01-23T16:38:17.629Z,1028.9
2023-01-23T16:43:51.121Z,1029.2
2023-01-23T16:49:25.422Z,1029.1
2023-01-23T16:54:44.664Z,1029.2
2023-01-23T17:00:34.404Z,1029.4
2023-01-23T17:05:53.704Z,1029.4
2023-01-23T17:11:24.553Z,1029.3
2023-01-23T17:17:05.443Z,1029.5
2023-01-23T17:22:42.131Z,1029.5
2023-01-23T17:28:12.988Z,1029.4
2023-01-23T17:33:57.807Z,1029.4
2023-01-23T17:39:20.667Z,1029.4
2023-01-23T17:44:47.443Z,1029.5
2023-01-23T17:50:38.664Z,1029.6
2023-01-23T17:55:54.826Z,1029.5
2023-01-23T18:01:40.864Z,1029.4
2023-01-23T18:06:55.221Z,1029.5
2023-01-23T18:12:33.129Z,1029.5
2023-01-23T18:18:08.704Z,1029.6
2023-01-23T18:23:43.601Z,1029.7
2023-01-23T18:29:15.973Z,1029.7
2023-01-23T18:35:02.485Z,1029.6
2023-01-23T18:40:28.197Z,1029.7
2023-01-23T18:46:13.030Z,1029.6
2023-01-23T18:51:33.535Z,1029.6
2023-01-23T18:57:26.351Z,1029.6
2023-01-23T19:02:46.416Z,1029.7
2023-01-23T19:08:26.104Z,1029.8
2023-01-23T19:14:06.799Z,1029.7
2023-01-23T19:19:43.306Z,1029.8
2023-01-23T19:25:04.897Z,1029.7
2023-01-23T19:30:54.880Z,1029.8
2023-01-23T19:36:11.580Z,1029.8
2023-01-23T19:41:39.628Z,1029.7
2023-01-23T19:47:11.040Z,1029.8
2023-01-23T19:52:51.078Z,1029.8
2023-01-23T19:58:32.958Z,1029.9
2023-01-23T20:04:09.584Z,1029.8
2023-01-23T20:09:40.602Z,1029.8
2023-01-23T20:15:05.437Z,1029.8
2023-01-23T20:20:38.555Z,1029.8
2023-01-23T20:26:32.761Z,1029.7
2023-01-23T20:32:05.882Z,1029.6
2023-01-23T20:37:26.887Z,1029.6
2023-01-23T20:43:03.873Z,1029.7
2023-01-23T20:48:34.505Z,1029.8
2023-01-23T20:54:22.416Z,1029.7
2023-01-23T20:59:39.671Z,1030
2023-01-23T21:05:27.959Z,1030
2023-01-23T21:11:00.497Z,1030
2023-01-23T21:16:33.788Z,1030.1
2023-01-23T21:21:52.851Z,1030
2023-01-23T21:27:31.022Z,1030.1
2023-01-23T21:33:16.749Z,1030.2
2023-01-23T21:38:40.977Z,1030.1
2023-01-23T21:44:24.443Z,1030.1
2023-01-23T21:50:03.711Z,1030.2
2023-01-23T21:55:20.966Z,1030.1
2023-01-23T22:01:08.685Z,1030.2
2023-01-23T22:06:42.989Z,1030.3
2023-01-23T22:12:01.243Z,1030.3
2023-01-23T22:17:33.448Z,1030.2
2023-01-23T22:23:32.327Z,1030.2
2023-01-23T22:28:57.760Z,1030.4
2023-01-23T22:34:40.784Z,1030.3
2023-01-23T22:39:49.746Z,1030.3
2023-01-23T22:45:49.914Z,1030.4
2023-01-23T22:51:24.355Z,1030.5
2023-01-23T22:56:48.554Z,1030.5
2023-01-23T23:02:18.339Z,1030.5
2023-01-23T23:07:58.130Z,1030.6
2023-01-23T23:13:20.847Z,1030.6
2023-01-23T23:18:51.472Z,1030.6
2023-01-23T23:24:42.234Z,1030.5
2023-01-23T23:30:01.735Z,1030.6
2023-01-23T23:35:47.715Z,1030.6
2023-01-23T23:41:27.558Z,1030.6
2023-01-23T23:47:03.383Z,1030.6
2023-01-23T23:52:28.096Z,1030.6
2023-01-23T23:58:00.959Z,1030.7
